OCN3VL LDZA-EDDF
Flight info
| Callsign | OCN3VL |
|---|---|
| Flight time | N/A |
| Altitude | 34000 |
| Route | PODET DCT RADLY DCT SIMBA DCT AKINI T161 DEBHI DEBHI1B/25L |
| Aircraft | A320/M-SDE3FGHIRWY/LB1 |
Departure
| Time | N/A |
|---|---|
| Airport | Zagreb Franjo Tuđman International Airport (LDZA) |
Arrival
| Time | 2026-05-06 18:04 |
|---|---|
| Airport | Frankfurt Main Airport (EDDF) |
| Time | Latitude | Longitude | Altitude | Speed | Heading |
|---|---|---|---|---|---|
| 2026-05-06 17:53 | 49.92961 | 8.64836 | 5011 ft | 280 kts | 74° |
| 2026-05-06 17:54 | 49.93500 | 8.67741 | 5003 ft | 280 kts | 74° |
| 2026-05-06 17:54 | 49.94049 | 8.70650 | 5010 ft | 281 kts | 74° |
| 2026-05-06 17:54 | 49.94599 | 8.73552 | 5004 ft | 280 kts | 74° |
| 2026-05-06 17:54 | 49.95149 | 8.76456 | 5008 ft | 280 kts | 74° |
| 2026-05-06 17:55 | 49.95698 | 8.79359 | 5009 ft | 280 kts | 74° |
| 2026-05-06 17:55 | 49.96247 | 8.82264 | 5013 ft | 280 kts | 74° |
| 2026-05-06 17:55 | 49.96798 | 8.85182 | 5005 ft | 282 kts | 74° |
| 2026-05-06 17:55 | 49.97339 | 8.88024 | 5000 ft | 266 kts | 74° |
| 2026-05-06 17:56 | 49.97849 | 8.90702 | 4963 ft | 253 kts | 74° |
| 2026-05-06 17:56 | 49.98347 | 8.93315 | 4711 ft | 250 kts | 72° |
| 2026-05-06 17:56 | 49.99186 | 8.95582 | 4426 ft | 245 kts | 42° |
| 2026-05-06 17:56 | 50.00579 | 8.97059 | 4081 ft | 242 kts | 26° |
| 2026-05-06 17:57 | 50.02078 | 8.98254 | 4006 ft | 239 kts | 24° |
| 2026-05-06 17:57 | 50.03566 | 8.99371 | 4008 ft | 241 kts | 18° |
| 2026-05-06 17:57 | 50.05189 | 8.99694 | 4008 ft | 235 kts | 350° |
| 2026-05-06 17:57 | 50.06800 | 8.99244 | 4009 ft | 235 kts | 345° |
| 2026-05-06 17:58 | 50.08394 | 8.98670 | 4004 ft | 234 kts | 339° |
| 2026-05-06 17:58 | 50.09760 | 8.97411 | 4005 ft | 228 kts | 314° |
| 2026-05-06 17:58 | 50.10749 | 8.95507 | 4003 ft | 225 kts | 297° |
| 2026-05-06 17:58 | 50.11318 | 8.93259 | 4007 ft | 223 kts | 280° |
| 2026-05-06 17:59 | 50.11428 | 8.90868 | 4004 ft | 222 kts | 263° |
| 2026-05-06 17:59 | 50.11079 | 8.88575 | 4003 ft | 211 kts | 249° |
| 2026-05-06 17:59 | 50.10587 | 8.86498 | 3997 ft | 198 kts | 250° |
| 2026-05-06 17:59 | 50.10128 | 8.84535 | 3870 ft | 188 kts | 250° |
| 2026-05-06 18:00 | 50.09686 | 8.82652 | 3628 ft | 182 kts | 250° |
| 2026-05-06 18:00 | 50.09254 | 8.80820 | 3398 ft | 180 kts | 251° |
| 2026-05-06 18:00 | 50.08825 | 8.78998 | 3162 ft | 178 kts | 250° |
| 2026-05-06 18:00 | 50.08398 | 8.77191 | 2916 ft | 177 kts | 251° |
| 2026-05-06 18:01 | 50.07971 | 8.75381 | 2678 ft | 178 kts | 251° |
| 2026-05-06 18:01 | 50.07543 | 8.73570 | 2435 ft | 178 kts | 252° |
| 2026-05-06 18:01 | 50.07121 | 8.71791 | 2200 ft | 172 kts | 252° |
| 2026-05-06 18:01 | 50.06720 | 8.70100 | 1989 ft | 157 kts | 252° |
| 2026-05-06 18:02 | 50.06361 | 8.68586 | 1770 ft | 144 kts | 254° |
| 2026-05-06 18:02 | 50.06024 | 8.67164 | 1568 ft | 140 kts | 254° |
| 2026-05-06 18:02 | 50.05685 | 8.65735 | 1382 ft | 139 kts | 252° |
| 2026-05-06 18:02 | 50.05353 | 8.64332 | 1182 ft | 138 kts | 252° |
| 2026-05-06 18:03 | 50.05018 | 8.62942 | 994 ft | 137 kts | 253° |
| 2026-05-06 18:03 | 50.04680 | 8.61560 | 812 ft | 137 kts | 253° |
| 2026-05-06 18:03 | 50.04357 | 8.60173 | 624 ft | 136 kts | 254° |
| 2026-05-06 18:03 | 50.04031 | 8.58785 | 421 ft | 136 kts | 253° |
| 2026-05-06 18:04 | 50.03720 | 8.57482 | 364 ft | 119 kts | 253° |
| 2026-05-06 18:04 | 50.03485 | 8.56473 | 356 ft | 75 kts | 249° |
| 2026-05-06 18:04 | 50.03358 | 8.55939 | 356 ft | 39 kts | 250° |
| 2026-05-06 18:04 | 50.03311 | 8.55552 | 343 ft | 35 kts | 273° |
| 2026-05-06 18:05 | 50.03336 | 8.55299 | 348 ft | 9 kts | 281° |
| 2026-05-06 18:05 | 50.03344 | 8.55233 | 342 ft | 1 kts | 280° |
| 2026-05-06 18:05 | 50.03345 | 8.55221 | 345 ft | 4 kts | 280° |
| 2026-05-06 18:05 | 50.03359 | 8.55090 | 344 ft | 16 kts | 279° |
| 2026-05-06 18:06 | 50.03357 | 8.54912 | 346 ft | 18 kts | 257° |
| 2026-05-06 18:06 | 50.03312 | 8.54718 | 336 ft | 20 kts | 248° |
| 2026-05-06 18:06 | 50.03284 | 8.54519 | 337 ft | 17 kts | 301° |
| 2026-05-06 18:06 | 50.03354 | 8.54456 | 335 ft | 10 kts | 339° |
| 2026-05-06 18:07 | 50.03385 | 8.54438 | 338 ft | 1 kts | 340° |
| 2026-05-06 18:07 | 50.03435 | 8.54410 | 351 ft | 16 kts | 340° |
| 2026-05-06 18:07 | 50.03526 | 8.54357 | 350 ft | 8 kts | 340° |
| 2026-05-06 18:07 | 50.03568 | 8.54333 | 338 ft | 4 kts | 340° |
| 2026-05-06 18:08 | 50.03591 | 8.54320 | 341 ft | 1 kts | 340° |
| 2026-05-06 18:08 | 50.03592 | 8.54319 | 341 ft | 0 kts | 340° |
| 2026-05-06 18:09 | 50.03607 | 8.54311 | 343 ft | 5 kts | 340° |
| 2026-05-06 18:09 | 50.03615 | 8.54307 | 347 ft | 0 kts | 341° |
| 2026-05-06 18:10 | 50.03616 | 8.54306 | 346 ft | 1 kts | 341° |
| 2026-05-06 18:10 | 50.03659 | 8.54341 | 347 ft | 10 kts | 57° |
| 2026-05-06 18:11 | 50.03687 | 8.54438 | 347 ft | 14 kts | 69° |
| 2026-05-06 18:11 | 50.03742 | 8.54664 | 350 ft | 27 kts | 70° |
| 2026-05-06 18:11 | 50.03806 | 8.54937 | 353 ft | 27 kts | 70° |
| 2026-05-06 18:11 | 50.03873 | 8.55214 | 357 ft | 27 kts | 70° |
| 2026-05-06 18:12 | 50.03907 | 8.55357 | 349 ft | 3 kts | 70° |
| 2026-05-06 18:12 | 50.03911 | 8.55376 | 358 ft | 2 kts | 69° |
| 2026-05-06 18:12 | 50.03928 | 8.55443 | 358 ft | 9 kts | 69° |
| 2026-05-06 18:12 | 50.03947 | 8.55523 | 351 ft | 8 kts | 69° |
| 2026-05-06 18:13 | 50.03984 | 8.55674 | 358 ft | 19 kts | 70° |
| 2026-05-06 18:13 | 50.04026 | 8.55857 | 358 ft | 17 kts | 70° |
| 2026-05-06 18:13 | 50.04095 | 8.55966 | 354 ft | 14 kts | 355° |
| 2026-05-06 18:13 | 50.04191 | 8.55916 | 354 ft | 15 kts | 347° |
| 2026-05-06 18:14 | 50.04250 | 8.55990 | 355 ft | 10 kts | 77° |
| 2026-05-06 18:14 | 50.04208 | 8.56045 | 356 ft | 8 kts | 159° |
| 2026-05-06 18:14 | 50.04178 | 8.56062 | 355 ft | 1 kts | 160° |
| 2026-05-06 18:14 | 50.04177 | 8.56063 | 355 ft | 0 kts | 160° |